createdAt,value
2018-07-28T00:00:30.233Z,23.93
2018-07-28T00:01:30.220Z,23.95
2018-07-28T00:02:30.204Z,24.03
2018-07-28T00:03:30.190Z,24.05
2018-07-28T00:04:30.175Z,23.63
2018-07-28T00:05:30.160Z,23.63
2018-07-28T00:06:30.148Z,23.38
2018-07-28T00:07:30.130Z,23.39
2018-07-28T00:08:30.114Z,23.36
2018-07-28T00:09:30.100Z,23.42
2018-07-28T00:10:30.083Z,23.80
2018-07-28T00:11:30.068Z,23.69
2018-07-28T00:12:30.055Z,23.79
2018-07-28T00:13:30.040Z,23.78
2018-07-28T00:14:30.023Z,23.75
2018-07-28T00:15:30.008Z,23.90
2018-07-28T00:16:29.993Z,23.94
2018-07-28T00:17:29.977Z,23.79
2018-07-28T00:18:29.962Z,23.91
2018-07-28T00:19:29.948Z,23.90
2018-07-28T00:20:29.932Z,23.80
2018-07-28T00:21:29.918Z,23.79
2018-07-28T00:22:29.901Z,23.78
2018-07-28T00:23:29.887Z,23.66
2018-07-28T00:24:29.872Z,23.69
2018-07-28T00:25:29.858Z,23.75
2018-07-28T00:26:29.841Z,23.78
2018-07-28T00:27:29.826Z,23.69
2018-07-28T00:28:29.813Z,23.78
2018-07-28T00:29:29.798Z,23.73
2018-07-28T00:30:29.782Z,23.58
2018-07-28T00:31:29.799Z,23.55
2018-07-28T00:32:29.752Z,23.79
2018-07-28T00:33:29.738Z,23.70
2018-07-28T00:34:29.722Z,23.76
2018-07-28T00:35:29.708Z,23.76
2018-07-28T00:36:29.692Z,23.73
2018-07-28T00:37:29.677Z,23.51
2018-07-28T00:38:29.662Z,23.33
2018-07-28T00:39:29.648Z,23.51
2018-07-28T00:40:29.636Z,23.58
2018-07-28T00:41:29.618Z,23.46
2018-07-28T00:42:29.603Z,23.46
2018-07-28T00:43:29.588Z,23.66
2018-07-28T00:44:29.573Z,23.60
2018-07-28T00:45:29.558Z,23.39
2018-07-28T00:46:29.542Z,23.33
2018-07-28T00:47:29.532Z,23.39
2018-07-28T00:48:29.514Z,23.39
2018-07-28T00:49:29.499Z,23.32
2018-07-28T00:50:29.483Z,23.47
2018-07-28T00:51:29.469Z,23.46
2018-07-28T00:52:29.453Z,23.28
2018-07-28T00:53:29.441Z,23.47
2018-07-28T00:54:29.423Z,23.39
2018-07-28T00:55:29.409Z,23.28
2018-07-28T00:56:29.395Z,23.50
2018-07-28T00:57:29.379Z,23.48
2018-07-28T00:58:29.364Z,23.33
2018-07-28T00:59:29.349Z,23.20
2018-07-28T01:00:29.335Z,23.19
2018-07-28T01:01:29.322Z,23.01
2018-07-28T01:02:29.303Z,22.95
2018-07-28T01:03:29.295Z,22.82
2018-07-28T01:04:29.275Z,23.00
2018-07-28T01:05:29.258Z,23.04
2018-07-28T01:06:29.244Z,23.01
2018-07-28T01:07:29.229Z,23.12
2018-07-28T01:08:29.214Z,23.16
2018-07-28T01:09:29.198Z,23.12
2018-07-28T01:10:29.182Z,23.19
2018-07-28T01:11:29.172Z,23.02
2018-07-28T01:12:29.153Z,22.92
2018-07-28T01:13:29.137Z,22.91
2018-07-28T01:14:29.122Z,22.90
2018-07-28T01:15:29.106Z,22.95
2018-07-28T01:16:29.092Z,22.95
2018-07-28T01:17:29.077Z,22.90
2018-07-28T01:18:29.060Z,22.88
2018-07-28T01:19:29.045Z,23.00
2018-07-28T01:20:29.029Z,22.77
2018-07-28T01:21:29.014Z,22.88
2018-07-28T01:22:28.999Z,22.62
2018-07-28T01:23:28.984Z,22.73
2018-07-28T01:24:28.968Z,22.98
2018-07-28T01:25:28.953Z,22.94
2018-07-28T01:26:28.936Z,23.05
2018-07-28T01:27:28.922Z,22.97
2018-07-28T01:28:28.905Z,22.98
2018-07-28T01:29:28.890Z,23.05
2018-07-28T01:30:28.875Z,23.05
2018-07-28T01:31:28.861Z,23.01
2018-07-28T01:32:28.845Z,23.01
2018-07-28T01:33:28.829Z,23.07
2018-07-28T01:34:28.813Z,23.17
2018-07-28T01:35:28.798Z,23.27
2018-07-28T01:36:28.783Z,23.07
2018-07-28T01:37:28.768Z,22.85
2018-07-28T01:38:28.751Z,22.97
2018-07-28T01:39:28.741Z,22.97
2018-07-28T01:40:28.721Z,23.15
2018-07-28T01:41:28.705Z,23.32
2018-07-28T01:42:28.688Z,23.07
2018-07-28T01:43:28.676Z,22.92
2018-07-28T01:44:28.658Z,23.10
2018-07-28T01:45:28.643Z,22.75
2018-07-28T01:46:28.627Z,22.92
2018-07-28T01:47:28.613Z,22.95
2018-07-28T01:48:28.598Z,22.94
2018-07-28T01:49:28.620Z,22.80
2018-07-28T01:50:28.565Z,22.82
2018-07-28T01:51:28.551Z,22.70
2018-07-28T01:52:28.535Z,22.86
2018-07-28T01:53:28.521Z,22.76
2018-07-28T01:54:28.506Z,22.76
2018-07-28T01:55:28.487Z,22.73
2018-07-28T01:56:28.473Z,22.83
2018-07-28T01:57:28.458Z,22.85
2018-07-28T01:58:28.441Z,22.55
2018-07-28T01:59:28.425Z,22.36
2018-07-28T02:00:28.410Z,22.70
2018-07-28T02:01:28.395Z,22.72
2018-07-28T02:02:28.378Z,22.46
2018-07-28T02:03:28.362Z,22.33
2018-07-28T02:04:28.345Z,22.33
2018-07-28T02:05:28.330Z,22.35
2018-07-28T02:06:28.312Z,22.54
2018-07-28T02:07:28.296Z,22.83
2018-07-28T02:08:28.280Z,22.73
2018-07-28T02:09:28.265Z,22.64
2018-07-28T02:10:28.248Z,22.67
2018-07-28T02:11:28.232Z,22.43
2018-07-28T02:12:28.214Z,22.58
2018-07-28T02:13:28.201Z,22.52
2018-07-28T02:14:28.182Z,22.54
2018-07-28T02:15:28.172Z,22.49
2018-07-28T02:16:28.149Z,22.31
2018-07-28T02:17:28.133Z,22.14
2018-07-28T02:18:28.116Z,22.21
2018-07-28T02:19:28.101Z,22.39
2018-07-28T02:20:28.084Z,22.39
2018-07-28T02:21:28.068Z,22.45
2018-07-28T02:22:28.050Z,22.51
2018-07-28T02:23:28.034Z,22.60
2018-07-28T02:24:28.017Z,22.35
2018-07-28T02:25:28.000Z,22.22
2018-07-28T02:26:27.984Z,22.33
2018-07-28T02:27:27.969Z,22.25
2018-07-28T02:28:27.951Z,22.39
2018-07-28T02:29:27.933Z,22.45
2018-07-28T02:30:27.918Z,22.43
2018-07-28T02:31:27.900Z,22.62
2018-07-28T02:32:27.884Z,22.51
2018-07-28T02:33:27.869Z,22.54
2018-07-28T02:34:27.851Z,22.62
2018-07-28T02:35:27.835Z,22.57
2018-07-28T02:36:27.818Z,22.28
2018-07-28T02:37:27.807Z,22.35
2018-07-28T02:38:27.786Z,22.46
2018-07-28T02:39:27.770Z,22.42
2018-07-28T02:40:27.756Z,22.52
2018-07-28T02:41:27.738Z,22.47
2018-07-28T02:42:27.720Z,22.64
2018-07-28T02:43:27.704Z,22.60
2018-07-28T02:44:27.687Z,22.47
2018-07-28T02:45:27.682Z,22.60
2018-07-28T02:46:27.655Z,22.51
2018-07-28T02:47:27.643Z,22.35
2018-07-28T02:48:27.622Z,22.35
2018-07-28T02:49:27.607Z,22.17
2018-07-28T02:50:27.593Z,22.07
2018-07-28T02:51:27.573Z,22.03
2018-07-28T02:52:27.558Z,22.17
2018-07-28T02:53:27.549Z,22.15
2018-07-28T02:54:27.523Z,22.18
2018-07-28T02:55:27.509Z,22.06
2018-07-28T02:56:27.491Z,22.24
2018-07-28T02:57:27.477Z,22.33
2018-07-28T02:58:27.458Z,22.30
2018-07-28T02:59:27.444Z,22.33
2018-07-28T03:00:27.429Z,22.30
2018-07-28T03:01:27.410Z,22.36
2018-07-28T03:02:27.396Z,22.36
2018-07-28T03:03:27.376Z,22.39
2018-07-28T03:04:27.361Z,22.27
2018-07-28T03:05:27.345Z,22.27
2018-07-28T03:06:27.330Z,22.07
2018-07-28T03:07:27.312Z,22.12
2018-07-28T03:08:27.295Z,22.31
2018-07-28T03:09:27.281Z,22.30
2018-07-28T03:10:27.265Z,22.18
2018-07-28T03:11:27.247Z,22.51
2018-07-28T03:12:27.245Z,22.18
2018-07-28T03:13:27.214Z,22.27
2018-07-28T03:14:27.196Z,22.43
2018-07-28T03:15:27.184Z,22.31
2018-07-28T03:16:27.165Z,22.05
2018-07-28T03:17:27.150Z,21.79
2018-07-28T03:18:27.133Z,21.99
2018-07-28T03:19:27.116Z,21.84
2018-07-28T03:20:27.102Z,21.98
2018-07-28T03:21:27.084Z,22.20
2018-07-28T03:22:27.066Z,22.17
2018-07-28T03:23:27.051Z,22.17
2018-07-28T03:24:27.034Z,22.22
2018-07-28T03:25:27.017Z,22.10
2018-07-28T03:26:27.000Z,22.06
2018-07-28T03:27:26.985Z,22.30
2018-07-28T03:28:26.968Z,22.46
2018-07-28T03:29:26.952Z,22.52
2018-07-28T03:30:26.933Z,22.42
2018-07-28T03:31:26.918Z,22.39
2018-07-28T03:32:26.902Z,22.31
2018-07-28T03:33:26.886Z,22.21
2018-07-28T03:34:26.868Z,22.22
2018-07-28T03:35:26.854Z,22.20
2018-07-28T03:36:26.837Z,21.99
2018-07-28T03:37:26.820Z,22.07
2018-07-28T03:38:26.803Z,22.17
2018-07-28T03:39:26.787Z,22.09
2018-07-28T03:40:26.776Z,22.06
2018-07-28T03:41:26.755Z,22.09
2018-07-28T03:42:26.738Z,22.02
2018-07-28T03:43:26.722Z,22.06
2018-07-28T03:44:26.705Z,22.14
2018-07-28T03:45:26.691Z,21.98
2018-07-28T03:46:26.673Z,21.96
2018-07-28T03:47:26.658Z,22.05
2018-07-28T03:48:26.641Z,22.09
2018-07-28T03:49:26.625Z,21.92
2018-07-28T03:50:26.608Z,21.75
2018-07-28T03:51:26.592Z,21.84
2018-07-28T03:52:26.574Z,21.62
2018-07-28T03:53:26.558Z,21.84
2018-07-28T03:54:26.542Z,21.96
2018-07-28T03:55:26.525Z,22.15
2018-07-28T03:56:26.516Z,22.18
2018-07-28T03:57:26.494Z,22.18
2018-07-28T03:58:26.476Z,22.09
2018-07-28T03:59:26.462Z,22.03
2018-07-28T04:00:26.444Z,21.74
2018-07-28T04:01:26.427Z,21.79
2018-07-28T04:02:26.410Z,22.00
2018-07-28T04:03:26.394Z,21.88
2018-07-28T04:04:26.381Z,21.82
2018-07-28T04:05:26.362Z,21.88
2018-07-28T04:06:26.345Z,22.02
2018-07-28T04:07:26.329Z,21.79
2018-07-28T04:08:26.314Z,21.82
2018-07-28T04:09:26.296Z,21.88
2018-07-28T04:10:26.280Z,21.90
2018-07-28T04:11:26.264Z,21.99
2018-07-28T04:12:26.248Z,21.79
2018-07-28T04:13:26.231Z,21.88
2018-07-28T04:14:26.290Z,21.62
2018-07-28T04:15:26.199Z,21.62
2018-07-28T04:16:26.186Z,21.86
2018-07-28T04:17:26.166Z,21.96
2018-07-28T04:18:26.149Z,22.22
2018-07-28T04:19:26.132Z,22.07
2018-07-28T04:20:26.117Z,22.14
2018-07-28T04:21:26.099Z,22.05
2018-07-28T04:22:26.087Z,22.09
2018-07-28T04:23:26.068Z,22.20
2018-07-28T04:24:26.055Z,22.27
2018-07-28T04:25:26.032Z,22.15
2018-07-28T04:26:26.022Z,22.24
2018-07-28T04:27:26.000Z,22.28
2018-07-28T04:28:25.994Z,22.35
2018-07-28T04:29:25.992Z,22.18
2018-07-28T04:30:25.950Z,22.18
2018-07-28T04:31:25.936Z,22.37
2018-07-28T04:32:25.918Z,22.05
2018-07-28T04:33:25.902Z,21.77
2018-07-28T04:34:25.885Z,21.71
2018-07-28T04:35:25.869Z,21.84
2018-07-28T04:36:25.853Z,22.03
2018-07-28T04:37:25.837Z,22.12
2018-07-28T04:38:25.820Z,22.25
2018-07-28T04:39:25.803Z,22.27
2018-07-28T04:40:25.787Z,22.28
2018-07-28T04:41:25.771Z,22.17
2018-07-28T04:42:25.753Z,22.07
2018-07-28T04:43:25.736Z,22.07
2018-07-28T04:44:25.721Z,22.15
2018-07-28T04:45:25.703Z,22.15
2018-07-28T04:46:25.686Z,22.42
2018-07-28T04:47:25.670Z,22.39
2018-07-28T04:48:25.653Z,22.28
2018-07-28T04:49:25.639Z,22.49
2018-07-28T04:50:25.620Z,22.36
2018-07-28T04:51:25.604Z,22.35
2018-07-28T04:52:25.588Z,22.36
2018-07-28T04:53:25.572Z,22.36
2018-07-28T04:54:25.554Z,22.17
2018-07-28T04:55:25.538Z,22.24
2018-07-28T04:56:25.522Z,22.17
2018-07-28T04:57:25.506Z,22.30
2018-07-28T04:58:25.489Z,22.37
2018-07-28T04:59:25.474Z,22.46
2018-07-28T05:00:25.457Z,22.60
2018-07-28T05:01:25.439Z,22.75
2018-07-28T05:02:25.422Z,22.68
2018-07-28T05:03:25.405Z,22.68
2018-07-28T05:04:25.408Z,22.67
2018-07-28T05:05:25.373Z,22.60
2018-07-28T05:06:25.356Z,22.36
2018-07-28T05:07:25.403Z,22.47
2018-07-28T05:08:25.322Z,22.43
2018-07-28T05:09:25.315Z,22.42
2018-07-28T05:10:25.290Z,22.54
2018-07-28T05:11:25.274Z,22.60
2018-07-28T05:12:25.257Z,22.67
2018-07-28T05:13:25.284Z,22.62
2018-07-28T05:14:25.243Z,22.55
2018-07-28T05:15:25.208Z,22.79
2018-07-28T05:16:25.191Z,22.43
2018-07-28T05:17:25.174Z,22.27
2018-07-28T05:18:25.157Z,22.39
2018-07-28T05:19:25.141Z,22.64
2018-07-28T05:20:25.123Z,22.45
2018-07-28T05:21:25.108Z,22.68
2018-07-28T05:22:25.092Z,22.88
2018-07-28T05:23:25.072Z,22.45
2018-07-28T05:24:25.056Z,22.68
2018-07-28T05:25:25.040Z,22.73
2018-07-28T05:26:25.023Z,22.64
2018-07-28T05:27:25.005Z,22.49
2018-07-28T05:28:24.989Z,22.61
2018-07-28T05:29:24.981Z,22.73
2018-07-28T05:30:24.954Z,22.39
2018-07-28T05:31:24.937Z,22.37
2018-07-28T05:32:24.919Z,22.52
2018-07-28T05:33:24.903Z,22.54
2018-07-28T05:34:24.895Z,22.60
2018-07-28T05:35:24.866Z,22.55
2018-07-28T05:36:24.849Z,22.68
2018-07-28T05:37:24.832Z,23.13
2018-07-28T05:38:24.815Z,22.94
2018-07-28T05:39:24.797Z,22.75
2018-07-28T05:40:24.779Z,22.68
2018-07-28T05:41:24.762Z,22.67
2018-07-28T05:42:24.759Z,22.98
2018-07-28T05:43:24.726Z,22.86
2018-07-28T05:44:24.710Z,22.92
2018-07-28T05:45:24.697Z,22.94
2018-07-28T05:46:24.677Z,23.12
2018-07-28T05:47:24.659Z,23.40
2018-07-28T05:48:24.638Z,23.13
2018-07-28T05:49:24.620Z,23.10
2018-07-28T05:50:24.602Z,23.28
2018-07-28T05:51:24.585Z,23.17
2018-07-28T05:52:24.568Z,23.15
2018-07-28T05:53:24.555Z,23.35
2018-07-28T05:54:24.534Z,23.40
2018-07-28T05:55:24.516Z,23.42
2018-07-28T05:56:24.499Z,23.40
2018-07-28T05:57:24.484Z,23.25
2018-07-28T05:58:24.466Z,23.46
2018-07-28T05:59:24.448Z,23.38
2018-07-28T06:00:24.432Z,23.33
2018-07-28T06:01:24.414Z,23.22
2018-07-28T06:02:24.516Z,23.43
2018-07-28T06:03:24.379Z,23.35
2018-07-28T06:04:24.364Z,23.43
2018-07-28T06:05:24.345Z,23.76
2018-07-28T06:06:24.326Z,23.78
2018-07-28T06:07:24.309Z,23.60
2018-07-28T06:08:24.291Z,23.76
2018-07-28T06:09:24.274Z,23.75
2018-07-28T06:10:24.256Z,23.78
2018-07-28T06:11:24.238Z,23.88
2018-07-28T06:12:24.232Z,23.94
2018-07-28T06:13:24.205Z,23.95
2018-07-28T06:14:24.186Z,23.94
2018-07-28T06:15:24.169Z,23.80
2018-07-28T06:16:24.152Z,23.88
2018-07-28T06:17:24.136Z,24.09
2018-07-28T06:18:24.118Z,24.20
2018-07-28T06:19:24.102Z,24.30
2018-07-28T06:20:24.092Z,24.49
2018-07-28T06:21:24.090Z,24.60
2018-07-28T06:22:24.053Z,24.46
2018-07-28T06:23:24.037Z,24.46
2018-07-28T06:24:24.020Z,24.55
2018-07-28T06:25:24.004Z,24.71
2018-07-28T06:26:23.989Z,24.84
2018-07-28T06:27:23.972Z,24.88
2018-07-28T06:28:23.956Z,25.06
2018-07-28T06:29:23.941Z,24.88
2018-07-28T06:30:23.924Z,24.93
2018-07-28T06:31:23.909Z,24.98
2018-07-28T06:32:23.893Z,24.99
2018-07-28T06:33:23.877Z,24.98
2018-07-28T06:34:23.861Z,25.13
2018-07-28T06:35:23.849Z,25.24
2018-07-28T06:36:23.853Z,25.46
2018-07-28T06:37:23.813Z,25.85
2018-07-28T06:38:23.797Z,26.05
2018-07-28T06:39:23.781Z,26.10
2018-07-28T06:40:23.768Z,26.32
2018-07-28T06:41:23.751Z,27.06
2018-07-28T06:42:23.738Z,28.77
2018-07-28T06:43:23.720Z,31.58
2018-07-28T06:44:23.705Z,32.23
2018-07-28T06:45:23.692Z,32.00
2018-07-28T06:46:23.673Z,31.62
2018-07-28T06:47:23.717Z,32.75
2018-07-28T06:48:23.648Z,33.53
2018-07-28T06:49:23.633Z,33.75
2018-07-28T06:50:23.619Z,33.50
2018-07-28T06:51:23.605Z,30.38
2018-07-28T06:52:23.593Z,29.61
2018-07-28T06:53:23.580Z,31.14
2018-07-28T06:54:23.566Z,32.51
2018-07-28T06:55:23.552Z,32.94
2018-07-28T06:56:23.540Z,32.43
2018-07-28T06:57:23.528Z,32.11
2018-07-28T06:58:23.551Z,32.22
2018-07-28T06:59:23.502Z,32.11
2018-07-28T07:00:23.490Z,30.08
2018-07-28T07:01:23.483Z,29.02
2018-07-28T07:02:23.466Z,29.02
2018-07-28T07:03:23.457Z,29.63
2018-07-28T07:04:23.445Z,29.15
2018-07-28T07:05:23.434Z,29.23
2018-07-28T07:06:23.421Z,29.05
2018-07-28T07:07:23.411Z,30.07
2018-07-28T07:08:23.401Z,30.00
2018-07-28T07:09:23.389Z,29.30
2018-07-28T07:10:23.378Z,29.33
2018-07-28T07:11:23.367Z,30.46
2018-07-28T07:12:23.359Z,31.38
2018-07-28T07:13:23.347Z,31.34
2018-07-28T07:14:23.335Z,32.93
2018-07-28T07:15:23.324Z,32.15
2018-07-28T07:16:23.315Z,33.19
2018-07-28T07:17:23.305Z,33.65
2018-07-28T07:18:23.298Z,30.98
2018-07-28T07:19:23.285Z,31.07
2018-07-28T07:20:23.275Z,30.62
2018-07-28T07:21:23.264Z,31.53
2018-07-28T07:22:23.253Z,32.63
2018-07-28T07:23:23.243Z,32.97
2018-07-28T07:24:23.233Z,33.95
2018-07-28T07:25:23.223Z,32.07
2018-07-28T07:26:23.212Z,33.53
2018-07-28T07:27:23.208Z,32.56
2018-07-28T07:28:23.194Z,30.99
2018-07-28T07:29:23.186Z,33.31
2018-07-28T07:30:23.216Z,32.35
2018-07-28T07:31:23.163Z,32.56
2018-07-28T07:32:23.160Z,32.56
2018-07-28T07:33:23.148Z,34.34
2018-07-28T07:34:23.134Z,35.11
2018-07-28T07:35:23.124Z,32.97
2018-07-28T07:36:23.117Z,32.06
2018-07-28T07:37:23.106Z,32.77
2018-07-28T07:38:23.098Z,34.40
2018-07-28T07:39:23.088Z,35.71
2018-07-28T07:40:23.078Z,36.00
2018-07-28T07:41:23.076Z,31.81
2018-07-28T07:42:23.061Z,32.69
2018-07-28T07:43:23.053Z,32.56
2018-07-28T07:44:23.061Z,34.66
2018-07-28T07:45:23.035Z,33.59
2018-07-28T07:46:23.025Z,33.57
2018-07-28T07:47:23.059Z,33.72
2018-07-28T07:48:23.011Z,32.30
2018-07-28T07:49:23.001Z,33.60
2018-07-28T07:50:22.998Z,34.80
2018-07-28T07:51:22.983Z,34.75
2018-07-28T07:52:22.977Z,33.56
2018-07-28T07:53:22.970Z,34.78
2018-07-28T07:54:22.962Z,33.01
2018-07-28T07:55:22.951Z,33.16
2018-07-28T07:56:22.947Z,32.96
2018-07-28T07:57:22.936Z,32.44
2018-07-28T07:58:22.927Z,31.84
2018-07-28T07:59:22.925Z,32.32
2018-07-28T08:00:22.912Z,32.94
2018-07-28T08:01:22.904Z,33.51
2018-07-28T08:02:22.895Z,34.17
2018-07-28T08:03:22.886Z,33.49
2018-07-28T08:04:22.879Z,33.37
2018-07-28T08:05:22.873Z,33.06
2018-07-28T08:06:22.879Z,32.13
2018-07-28T08:07:22.857Z,32.66
2018-07-28T08:08:22.846Z,33.01
2018-07-28T08:09:22.840Z,33.60
2018-07-28T08:10:22.828Z,33.21
2018-07-28T08:11:22.819Z,33.37
2018-07-28T08:12:22.812Z,32.60
2018-07-28T08:13:22.804Z,33.98
2018-07-28T08:14:22.794Z,32.93
2018-07-28T08:15:22.785Z,32.79
2018-07-28T08:16:22.779Z,34.43
2018-07-28T08:17:22.771Z,33.39
2018-07-28T08:18:22.763Z,33.56
2018-07-28T08:19:22.761Z,32.06
2018-07-28T08:20:22.746Z,31.13
2018-07-28T08:21:22.736Z,31.26
2018-07-28T08:22:22.734Z,31.32
2018-07-28T08:23:22.718Z,32.04
2018-07-28T08:24:22.709Z,32.29
2018-07-28T08:25:22.701Z,33.32
2018-07-28T08:26:22.696Z,33.28
2018-07-28T08:27:22.681Z,33.07
2018-07-28T08:28:22.674Z,32.22
2018-07-28T08:29:22.665Z,32.38
2018-07-28T08:30:22.653Z,33.19
2018-07-28T08:31:22.643Z,31.53
2018-07-28T08:32:22.636Z,30.92
2018-07-28T08:33:22.662Z,30.61
2018-07-28T08:34:22.616Z,31.54
2018-07-28T08:35:22.607Z,32.28
2018-07-28T08:36:22.600Z,33.26
2018-07-28T08:37:22.588Z,34.43
2018-07-28T08:38:22.577Z,31.73
2018-07-28T08:39:22.567Z,31.06
2018-07-28T08:40:22.557Z,32.13
2018-07-28T08:41:22.546Z,30.65
2018-07-28T08:42:22.535Z,31.70
2018-07-28T08:43:22.526Z,30.92
2018-07-28T08:44:22.515Z,31.19
2018-07-28T08:45:22.505Z,32.47
2018-07-28T08:46:22.525Z,31.36
2018-07-28T08:47:22.482Z,31.76
2018-07-28T08:48:22.472Z,32.62
2018-07-28T08:49:22.571Z,32.99
2018-07-28T08:50:22.450Z,30.97
2018-07-28T08:51:22.441Z,30.24
2018-07-28T08:52:22.430Z,31.89
2018-07-28T08:53:22.421Z,32.32
2018-07-28T08:54:22.408Z,32.08
2018-07-28T08:55:22.435Z,32.57
2018-07-28T08:56:22.389Z,32.08
2018-07-28T08:57:22.379Z,31.53
2018-07-28T08:58:22.368Z,30.94
2018-07-28T08:59:22.358Z,31.80
2018-07-28T09:00:22.356Z,30.80
2018-07-28T09:01:22.428Z,31.14
2018-07-28T09:02:22.379Z,31.85
2018-07-28T09:03:22.365Z,31.69
2018-07-28T09:04:22.342Z,30.88
2018-07-28T09:05:22.319Z,31.53
2018-07-28T09:06:22.293Z,31.63
2018-07-28T09:07:22.297Z,31.16
2018-07-28T09:08:22.304Z,31.96
2018-07-28T09:09:22.292Z,31.34
2018-07-28T09:10:22.272Z,32.26
2018-07-28T09:11:22.278Z,32.63
2018-07-28T09:12:22.302Z,32.50
2018-07-28T09:13:22.254Z,33.59
2018-07-28T09:14:22.226Z,32.82
2018-07-28T09:15:22.214Z,32.47
2018-07-28T09:16:22.255Z,32.18
2018-07-28T09:17:22.272Z,31.70
2018-07-28T09:18:22.178Z,32.43
2018-07-28T09:19:22.165Z,33.73
2018-07-28T09:20:22.160Z,34.42
2018-07-28T09:21:22.169Z,34.39
2018-07-28T09:22:22.146Z,34.66
2018-07-28T09:23:22.156Z,35.11
2018-07-28T09:24:22.117Z,35.82
2018-07-28T09:25:22.106Z,35.89
2018-07-28T09:26:22.096Z,35.45
2018-07-28T09:27:22.091Z,35.11
2018-07-28T09:28:22.090Z,33.29
2018-07-28T09:29:22.077Z,32.92
2018-07-28T09:30:22.066Z,32.13
2018-07-28T09:31:22.052Z,32.28
2018-07-28T09:32:22.073Z,33.41
2018-07-28T09:33:22.032Z,33.87
2018-07-28T09:34:22.059Z,33.95
2018-07-28T09:35:22.058Z,33.39
2018-07-28T09:36:22.007Z,32.21
2018-07-28T09:37:21.994Z,32.14
2018-07-28T09:38:22.008Z,33.03
2018-07-28T09:39:21.977Z,33.47
2018-07-28T09:40:21.969Z,34.13
2018-07-28T09:41:21.964Z,34.31
2018-07-28T09:42:21.947Z,33.94
2018-07-28T09:43:21.972Z,32.92
2018-07-28T09:44:21.930Z,32.62
2018-07-28T09:45:21.938Z,33.57
2018-07-28T09:46:21.997Z,33.61
2018-07-28T09:47:21.931Z,34.43
2018-07-28T09:48:21.904Z,32.67
2018-07-28T09:49:21.898Z,32.28
2018-07-28T09:50:21.875Z,32.93
2018-07-28T09:51:21.866Z,34.06
2018-07-28T09:52:21.868Z,32.01
2018-07-28T09:53:21.848Z,31.34
2018-07-28T09:54:21.840Z,32.23
2018-07-28T09:55:21.829Z,31.43
2018-07-28T09:56:21.820Z,31.41
2018-07-28T09:57:21.811Z,31.50
2018-07-28T09:58:21.828Z,31.61
2018-07-28T09:59:21.795Z,33.29
2018-07-28T10:00:21.783Z,33.73
2018-07-28T10:01:21.772Z,32.25
2018-07-28T10:02:21.778Z,32.38
2018-07-28T10:03:21.764Z,33.26
2018-07-28T10:04:21.746Z,33.98
2018-07-28T10:05:21.733Z,32.62
2018-07-28T10:06:21.724Z,33.73
2018-07-28T10:07:21.715Z,32.38
2018-07-28T10:08:21.724Z,33.28
2018-07-28T10:09:21.697Z,31.92
2018-07-28T10:10:21.685Z,31.16
2018-07-28T10:11:21.696Z,31.14
2018-07-28T10:12:21.691Z,31.93
2018-07-28T10:13:21.669Z,34.03
2018-07-28T10:14:21.651Z,34.13
2018-07-28T10:15:21.645Z,33.61
2018-07-28T10:16:21.676Z,33.57
2018-07-28T10:17:21.618Z,33.15
2018-07-28T10:18:21.613Z,33.49
2018-07-28T10:19:21.622Z,33.39
2018-07-28T10:20:21.592Z,32.32
2018-07-28T10:21:21.587Z,33.04
2018-07-28T10:22:21.573Z,33.32
2018-07-28T10:23:21.563Z,33.97
2018-07-28T10:24:21.560Z,34.52
2018-07-28T10:25:21.548Z,32.94
2018-07-28T10:26:21.538Z,33.69
2018-07-28T10:27:21.529Z,33.51
2018-07-28T10:28:21.520Z,33.35
2018-07-28T10:29:21.512Z,31.93
2018-07-28T10:30:21.504Z,31.81
2018-07-28T10:31:21.493Z,30.94
2018-07-28T10:32:21.484Z,31.80
2018-07-28T10:33:21.476Z,32.26
2018-07-28T10:34:21.464Z,32.25
2018-07-28T10:35:21.455Z,33.19
2018-07-28T10:36:21.557Z,33.65
2018-07-28T10:37:21.437Z,33.18
2018-07-28T10:38:21.427Z,33.19
2018-07-28T10:39:21.417Z,33.61
2018-07-28T10:40:21.408Z,32.59
2018-07-28T10:41:21.399Z,33.38
2018-07-28T10:42:21.391Z,33.21
2018-07-28T10:43:21.381Z,33.44
2018-07-28T10:44:21.373Z,32.40
2018-07-28T10:45:21.365Z,32.26
2018-07-28T10:46:21.354Z,33.57
2018-07-28T10:47:21.345Z,33.35
2018-07-28T10:48:21.337Z,32.78
2018-07-28T10:49:21.331Z,33.26
2018-07-28T10:50:21.319Z,31.84
2018-07-28T10:51:21.310Z,32.66
2018-07-28T10:52:21.300Z,34.16
2018-07-28T10:53:21.293Z,32.37
2018-07-28T10:54:21.282Z,32.77
2018-07-28T10:55:21.275Z,33.56
2018-07-28T10:56:21.265Z,33.41
2018-07-28T10:57:21.257Z,33.50
2018-07-28T10:58:21.248Z,33.01
2018-07-28T10:59:21.237Z,33.53
2018-07-28T11:00:21.283Z,31.69
2018-07-28T11:01:21.227Z,33.21
2018-07-28T11:02:21.212Z,33.18
2018-07-28T11:03:21.204Z,33.07
2018-07-28T11:04:21.201Z,33.18
2018-07-28T11:05:21.187Z,33.87
2018-07-28T11:06:21.177Z,34.13
2018-07-28T11:07:21.174Z,33.18
2018-07-28T11:08:21.160Z,33.00
2018-07-28T11:09:21.153Z,33.75
2018-07-28T11:10:21.144Z,34.12
2018-07-28T11:11:21.137Z,34.17
2018-07-28T11:12:21.130Z,33.31
2018-07-28T11:13:21.122Z,33.14
2018-07-28T11:14:21.113Z,33.68
2018-07-28T11:15:21.109Z,33.54
2018-07-28T11:16:21.098Z,34.17
2018-07-28T11:17:21.090Z,32.81
2018-07-28T11:18:21.081Z,32.52
2018-07-28T11:19:21.077Z,32.55
2018-07-28T11:20:21.068Z,32.99
2018-07-28T11:21:21.061Z,32.79
2018-07-28T11:22:21.052Z,32.63
2018-07-28T11:23:21.046Z,33.01
2018-07-28T11:24:21.037Z,32.29
2018-07-28T11:25:21.028Z,32.88
2018-07-28T11:26:21.137Z,33.73
2018-07-28T11:27:21.012Z,32.23
2018-07-28T11:28:21.004Z,31.53
2018-07-28T11:29:20.999Z,31.54
2018-07-28T11:30:20.989Z,31.57
2018-07-28T11:31:20.980Z,31.62
2018-07-28T11:32:20.976Z,31.75
2018-07-28T11:33:21.034Z,32.85
2018-07-28T11:34:20.955Z,33.26
2018-07-28T11:35:20.945Z,32.29
2018-07-28T11:36:20.936Z,31.93
2018-07-28T11:37:20.927Z,31.80
2018-07-28T11:38:20.922Z,31.54
2018-07-28T11:39:20.907Z,30.80
2018-07-28T11:40:20.898Z,30.83
2018-07-28T11:41:20.891Z,31.20
2018-07-28T11:42:20.876Z,31.36
2018-07-28T11:43:20.869Z,30.86
2018-07-28T11:44:20.856Z,31.28
2018-07-28T11:45:20.846Z,31.21
2018-07-28T11:46:20.834Z,30.84
2018-07-28T11:47:20.825Z,30.97
2018-07-28T11:48:20.815Z,31.46
2018-07-28T11:49:20.803Z,31.68
2018-07-28T11:50:20.791Z,31.86
2018-07-28T11:51:20.823Z,31.34
2018-07-28T11:52:20.785Z,31.63
2018-07-28T11:53:20.760Z,31.86
2018-07-28T11:54:20.752Z,31.78
2018-07-28T11:55:20.738Z,32.00
2018-07-28T11:56:20.728Z,32.01
2018-07-28T11:57:20.716Z,32.18
2018-07-28T11:58:20.802Z,31.29
2018-07-28T11:59:20.694Z,31.38
2018-07-28T12:00:20.683Z,31.32
2018-07-28T12:01:20.676Z,31.32
2018-07-28T12:02:20.662Z,31.29
2018-07-28T12:03:20.656Z,31.46
2018-07-28T12:04:20.641Z,31.70
2018-07-28T12:05:20.628Z,31.76
2018-07-28T12:06:20.617Z,31.31
2018-07-28T12:07:20.606Z,31.36
2018-07-28T12:08:20.594Z,31.53
2018-07-28T12:09:20.585Z,31.66
2018-07-28T12:10:20.573Z,31.91
2018-07-28T12:11:20.563Z,32.13
2018-07-28T12:12:20.553Z,32.28
2018-07-28T12:13:20.540Z,32.11
2018-07-28T12:14:20.529Z,31.50
2018-07-28T12:15:20.517Z,31.72
2018-07-28T12:16:20.507Z,31.73
2018-07-28T12:17:20.499Z,31.88
2018-07-28T12:18:20.534Z,32.03
2018-07-28T12:19:20.475Z,32.32
2018-07-28T12:20:20.464Z,32.10
2018-07-28T12:21:20.453Z,32.07
2018-07-28T12:22:20.441Z,32.08
2018-07-28T12:23:20.432Z,32.00
2018-07-28T12:24:20.421Z,31.56
2018-07-28T12:25:20.411Z,31.84
2018-07-28T12:26:20.398Z,31.72
2018-07-28T12:27:20.388Z,31.88
2018-07-28T12:28:20.377Z,31.63
2018-07-28T12:29:20.366Z,32.00
2018-07-28T12:30:20.356Z,31.80
2018-07-28T12:31:20.350Z,32.00
2018-07-28T12:32:20.334Z,31.84
2018-07-28T12:33:20.324Z,31.85
2018-07-28T12:34:20.312Z,31.66
2018-07-28T12:35:20.302Z,31.50
2018-07-28T12:36:20.292Z,31.75
2018-07-28T12:37:20.283Z,31.91
2018-07-28T12:38:20.274Z,31.80
2018-07-28T12:39:20.259Z,31.56
2018-07-28T12:40:20.247Z,31.36
2018-07-28T12:41:20.236Z,31.14
2018-07-28T12:42:20.223Z,31.32
2018-07-28T12:43:20.212Z,31.02
2018-07-28T12:44:20.201Z,31.10
2018-07-28T12:45:20.189Z,31.21
2018-07-28T12:46:20.175Z,31.21
2018-07-28T12:47:20.163Z,31.50
2018-07-28T12:48:20.153Z,31.28
2018-07-28T12:49:20.143Z,31.35
2018-07-28T12:50:20.129Z,31.25
2018-07-28T12:51:20.118Z,31.41
2018-07-28T12:52:20.106Z,31.38